Flight Track Log - Related Links

Times and Time Zones

All times are in EDT time to prevent confusion due to time zone crossing. See the GJS6267 flight status page for this flight to view local times or setup timezone preferences in your user account.

Time Position Orientation Groundspeed Altitude Reporting Facility
EDT Latitude Longitude Course Direction KTS MPH feet Rate Location/Type
Fri 05:58:37 PM 38.7333 -90.2833 76° East 182 209 2,500  Level Gateway (St. Louis) TRACON
Fri 05:59:30 PM 38.7269 -90.2133 97° East 212 244 4,000 2,017 Climbing Kansas City Center
Fri 06:00:33 PM 38.7067 -90.1275 107° East 244 281 6,400 2,129 Climbing Kansas City Center
Fri 06:01:34 PM 38.6786 -90.0367 112° Southeast 261 300 8,400 2,049 Climbing Kansas City Center
Fri 06:02:36 PM 38.6486 -89.9403 112° Southeast 284 327 10,600 2,032 Climbing Kansas City Center
Fri 06:03:38 PM 38.6108 -89.8181 112° Southeast 304 350 12,600 1,548 Climbing Kansas City Center
Fri 06:04:00 PM 39.0526 -88.7834 76° East  Level Estimated
Fri 06:04:40 PM 38.5742 -89.7031 112° Southeast 338 389 13,800  Level Kansas City Center
Fri 06:05:42 PM 38.5350 -89.5736 111° Southeast 372 428 15,200 1,694 Climbing Kansas City Center
Fri 06:06:44 PM 38.4975 -89.4364 109° East 381 438 17,300 1,597 Climbing Kansas City Center
Fri 06:07:46 PM 38.4614 -89.3083 110° East 385 443 18,500 1,210 Climbing Kansas City Center
Fri 06:08:48 PM 38.4208 -89.1639 110° East 402 463 19,800 1,200 Climbing Kansas City Center
Fri 06:09:51 PM 38.3750 -89.0286 113° Southeast 415 478 21,000 1,248 Climbing Kansas City Center
Fri 06:10:53 PM 38.3256 -88.8942 115° Southeast 418 481 22,400 1,258 Climbing Kansas City Center
Fri 06:11:55 PM 38.2783 -88.7608 114° Southeast 416 479 23,600 1,016 Climbing Kansas City Center
Fri 06:12:57 PM 38.2264 -88.6067 113° Southeast 424 488 24,500 823 Climbing Kansas City Center
Fri 06:13:59 PM 38.1756 -88.4628 114° Southeast 438 504 25,300 787 Climbing Kansas City Center
Fri 06:14:59 PM 38.1392 -88.3147 107° East 447 514 26,100 793 Climbing Indianapolis Center
Fri 06:16:00 PM 38.1381 -88.1631 90° East 434 499 26,900 774 Climbing Indianapolis Center
Fri 06:17:03 PM 38.1381 -88.0108 90° East 431 496 27,700 816 Climbing Indianapolis Center
Fri 06:18:05 PM 38.1369 -87.8569 90° East 434 499 28,600 912 Climbing Indianapolis Center
Fri 06:19:08 PM 38.1358 -87.7042 90° East 434 499 29,600 919 Climbing Indianapolis Center
Fri 06:20:09 PM 38.1356 -87.5533 90° East 428 493 30,500 836 Climbing Indianapolis Center
Fri 06:21:10 PM 38.1322 -87.3742 91° East 425 489 31,300 683 Climbing Indianapolis Center
Fri 06:22:12 PM 38.1311 -87.2222 90° East 432 497 31,900 571 Climbing Indianapolis Center
Fri 06:23:16 PM 38.1286 -87.0711 91° East 435 501 32,500 576 Climbing Indianapolis Center
Fri 06:24:17 PM 38.1272 -86.9194 91° East 437 503 33,100 677 Climbing Indianapolis Center
Fri 06:25:20 PM 38.1253 -86.7364 91° East 435 501 33,900 677 Climbing Indianapolis Center
Fri 06:26:21 PM 38.1233 -86.5858 91° East 431 496 34,500 590 Climbing Indianapolis Center
Fri 06:27:22 PM 38.1206 -86.4344 91° East 430 495 35,100 576 Climbing Indianapolis Center
Fri 06:28:26 PM 38.1178 -86.2839 91° East 427 491 35,700 571 Climbing Indianapolis Center
Fri 06:29:28 PM 38.1153 -86.1353 91° East 423 487 36,300 590 Climbing Indianapolis Center
Fri 06:30:28 PM 38.1131 -85.9853 91° East 424 488 36,900 339 Climbing Indianapolis Center
Fri 06:31:32 PM 38.1092 -85.8378 92° East 420 483 37,000 48 Climbing Indianapolis Center
Fri 06:32:34 PM 38.1056 -85.6547 91° East 432 497 37,000  Level Indianapolis Center
Fri 06:33:36 PM 38.0928 -85.5019 96° East 438 504 37,000  Level Indianapolis Center
Fri 06:34:37 PM 38.0678 -85.3464 101° East 449 517 37,000  Level Indianapolis Center
Fri 06:35:39 PM 38.0442 -85.1933 101° East 444 511 37,000  Level Indianapolis Center
Fri 06:36:40 PM 38.0161 -85.0208 102° East 442 509 37,000  Level Indianapolis Center
Fri 06:37:44 PM 37.9928 -84.8661 101° East 446 513 37,000  Level Indianapolis Center
Fri 06:38:45 PM 37.9672 -84.7125 102° East 447 514 37,000  Level Indianapolis Center
Fri 06:39:48 PM 37.9425 -84.5597 102° East 441 507 37,000  Level Indianapolis Center
Fri 06:40:49 PM 37.9169 -84.4050 102° East 445 512 37,000  Level Indianapolis Center
Fri 06:41:52 PM 37.8917 -84.2511 102° East 447 514 37,000  Level Indianapolis Center
Fri 06:42:53 PM 37.8614 -84.0708 102° East 447 514 37,000  Level Indianapolis Center
Fri 06:43:54 PM 37.8347 -83.9175 102° East 446 513 37,000  Level Indianapolis Center
Fri 06:44:57 PM 37.8100 -83.7583 101° East 457 526 37,000  Level Indianapolis Center
Fri 06:45:58 PM 37.7814 -83.6022 103° East 456 525 37,000  Level Indianapolis Center
Fri 06:47:02 PM 37.7544 -83.4425 102° East 461 531 37,000  Level Indianapolis Center
Fri 06:48:02 PM 37.7258 -83.2819 103° East 463 533 37,000  Level Indianapolis Center
Fri 06:49:06 PM 37.6931 -83.0911 102° East 471 542 37,000  Level Indianapolis Center
Fri 06:50:06 PM 37.6639 -82.9269 103° East 476 548 37,000  Level Indianapolis Center
Fri 06:51:07 PM 37.6383 -82.7653 101° East 469 540 37,000  Level Indianapolis Center
Fri 06:52:11 PM 37.6492 -82.5978 85° East 478 550 37,000  Level Indianapolis Center
Fri 06:53:13 PM 37.6653 -82.4264 83° East 485 558 37,000  Level Indianapolis Center
Fri 06:54:14 PM 37.6814 -82.2569 83° East 484 557 37,000  Level Indianapolis Center
Fri 06:55:15 PM 37.6994 -82.0925 82° East 473 544 37,000  Level Indianapolis Center
Fri 06:56:16 PM 37.7183 -81.8947 83° East 483 556 37,000  Level Indianapolis Center
Fri 06:57:20 PM 37.7342 -81.7267 83° East 481 554 37,000  Level Indianapolis Center
Fri 06:58:20 PM 37.7497 -81.5594 83° East 480 552 37,000  Level Indianapolis Center
Fri 06:59:24 PM 37.7664 -81.3781 83° East 481 554 37,000  Level Indianapolis Center
Fri 07:00:24 PM 37.7800 -81.2144 84° East 484 557 37,000  Level Indianapolis Center
Fri 07:01:28 PM 37.7950 -81.0478 83° East 489 563 37,000  Level Indianapolis Center
Fri 07:02:28 PM 37.8097 -80.8819 84° East 488 562 37,000  Level Indianapolis Center
Fri 07:03:30 PM 37.8233 -80.7078 84° East 492 566 37,000  Level Indianapolis Center
Fri 07:04:33 PM 37.8406 -80.5008 84° East 493 567 37,000  Level Indianapolis Center
Fri 07:05:34 PM 37.8542 -80.3417 84° East 498 573 37,000  Level Indianapolis Center
Fri 07:06:35 PM 37.8703 -80.1364 84° East 500 575 37,000  Level Indianapolis Center
Fri 07:07:36 PM 37.8850 -79.9675 84° East 495 570 37,000  Level Indianapolis Center
Fri 07:08:40 PM 37.8983 -79.7997 84° East 490 564 37,000  Level Indianapolis Center
Fri 07:09:41 PM 37.9119 -79.6336 84° East 486 559 37,000  Level Indianapolis Center
Fri 07:10:48 PM 37.9306 -79.4278 83° East 489 563 37,000  Level Washington Center
Fri 07:11:49 PM 37.9417 -79.2756 85° East 483 556 37,000  Level Washington Center
Fri 07:12:49 PM 37.9531 -79.1022 85° East 483 556 37,000  Level Washington Center
Fri 07:13:48 PM 37.9661 -78.9344 84° East 478 550 37,000  Level Washington Center
Fri 07:14:49 PM 37.9769 -78.7636 85° East 478 550 37,000  Level Washington Center
Fri 07:15:49 PM 37.9881 -78.5769 86° East 478 550 37,000  Level Washington Center
Fri 07:16:48 PM 38.0006 -78.4089 85° East 478 550 37,000  Level Washington Center
Fri 07:17:48 PM 38.0128 -78.2378 85° East 478 550 37,000  Level Washington Center
Fri 07:18:48 PM 38.0183 -78.0747 87° East 472 543 37,000  Level Washington Center
Fri 07:19:49 PM 38.0253 -77.9325 86° East 459 528 37,000  Level Washington Center
Fri 07:20:49 PM 38.0367 -77.7747 85° East 454 522 37,000  Level Washington Center
Fri 07:21:47 PM 38.0456 -77.6142 86° East 454 522 37,000  Level Washington Center
Fri 07:22:48 PM 38.0544 -77.4536 86° East 454 522 37,000  Level Washington Center
Fri 07:23:49 PM 38.0653 -77.2928 85° East 454 522 37,000  Level Washington Center
Fri 07:24:47 PM 38.0739 -77.1083 87° East 474 545 37,000  Level Washington Center
Fri 07:25:48 PM 38.0819 -76.9556 86° East 481 554 37,000  Level Washington Center
Fri 07:26:47 PM 38.0900 -76.7975 86° East 469 540 37,000  Level Washington Center
Fri 07:27:48 PM 38.1269 -76.6397 73° East 464 534 37,000 -689 Level Washington Center
Fri 07:28:49 PM 38.2136 -76.5033 51° Northeast 461 531 35,600 -1,736 Descending Washington Center
Fri 07:29:49 PM 38.3083 -76.3803 46° Northeast 473 544 33,500 -2,118 Descending Washington Center
Fri 07:30:48 PM 38.4236 -76.2756 35° Northeast 478 550 31,400 1,765 Descending Washington Center
Fri 07:31:48 PM 38.5347 -76.1703 37° Northeast 491 565 37,000 -2,033 Climbing Washington Center
Fri 07:32:49 PM 38.6475 -76.0647 36° Northeast 502 578 27,300 -5,000 Descending Washington Center
Fri 07:33:48 PM 38.7583 -75.9669 35° Northeast 495 570 27,000 -151 Descending Washington Center
Fri 07:34:48 PM 38.8650 -75.8661 36° Northeast 485 558 27,000  Level Washington Center
Fri 07:35:48 PM 38.9736 -75.7653 36° Northeast 479 551 27,000 -550 Level Washington Center
Fri 07:36:48 PM 39.0800 -75.6611 37° Northeast 479 551 25,900 -1,289 Descending Washington Center
Fri 07:37:49 PM 39.1842 -75.5647 36° Northeast 474 545 24,400 -1,388 Descending Washington Center
Fri 07:38:49 PM 39.2864 -75.4708 35° Northeast 461 531 23,100 -1,400 Descending Washington Center
Fri 07:39:49 PM 39.3861 -75.3794 35° Northeast 450 518 21,600 -1,462 Descending Washington Center
Fri 07:40:48 PM 39.4881 -75.2903 34° Northeast 444 511 20,200 -1,424 Descending Washington Center
Fri 07:41:47 PM 39.5817 -75.2039 35° Northeast 438 504 18,800 -1,513 Descending Washington Center
Fri 07:42:47 PM 39.6814 -75.1117 35° Northeast 417 480 17,200 -1,438 Descending Washington Center
Fri 07:43:48 PM 39.7767 -75.0300 33° Northeast 404 465 15,900 -1,500 Descending Washington Center
Fri 07:44:47 PM 39.8700 -74.9453 35° Northeast 398 458 14,200 -1,540 Descending Washington Center
Fri 07:45:41 PM 39.9500 -74.8667 37° Northeast 386 444 13,000 -1,421 Descending New York TRACON
Fri 07:46:41 PM 40.0167 -74.7667 49° Northeast 373 429 11,500 -1,450 Descending New York TRACON
Fri 07:47:41 PM 40.0833 -74.6667 49° Northeast 355 409 10,100 -750 Descending New York TRACON
Fri 07:48:41 PM 40.1500 -74.5833 44° Northeast 353 406 10,000 -50 Descending New York TRACON
Fri 07:49:41 PM 40.2167 -74.4833 49° Northeast 355 409 10,000 -288 Level New York TRACON
Fri 07:50:46 PM 40.2833 -74.3833 49° Northeast 302 348 9,400 -1,008 Descending New York TRACON
Fri 07:51:46 PM 40.3500 -74.3167 37° Northeast 283 326 7,900 -1,200 Descending New York TRACON
Fri 07:52:46 PM 40.3833 -74.2500 57° Northeast 226 260 7,000 -470 Descending New York TRACON
Fri 07:53:41 PM 40.4167 -74.2000 49° Northeast 189 217 7,000 -209 Level New York TRACON
Fri 07:54:41 PM 40.4500 -74.1500 49° Northeast 188 216 6,600 -850 Descending New York TRACON
Fri 07:55:41 PM 40.4833 -74.1167 37° Northeast 180 207 5,300 -1,300 Descending New York TRACON
Fri 07:56:41 PM 40.5333 -74.0833 27° Northeast 178 205 4,000 -900 Descending New York TRACON
Fri 07:57:41 PM 40.5667 -74.0500 37° Northeast 162 186 3,500 -400 Descending New York TRACON
Fri 07:58:41 PM 40.6000 -74.0167 37° Northeast 143 165 3,200 -300 Descending New York TRACON
Fri 07:59:41 PM 40.6333 -74.0000 21° North 142 163 2,900 -450 Descending New York TRACON
Fri 08:00:41 PM 40.6667 -73.9667 37° Northeast 139 160 2,300 -650 Descending New York TRACON
Fri 08:01:41 PM 40.7000 -73.9333 37° Northeast 115 132 1,600 -667 Descending New York TRACON
Fri 08:02:47 PM 40.7333 -73.9167 21° North 122 140 900 -636 Descending New York TRACON

Login

Don't have an account? Register now (free) for customized features, flight alerts, and more!